General Aviation Weather

Text Reports

Enter one or more of the following location identifiers separated by a space:

Zip Code, Four-Character ICAO or Three-Character IATA airport codes.

METAR - Aviation Routine Weather Report
PHNL - Honolulu, Hawaii
Updated at 1:53 AM GMT on August 31, 2015 (3:53 PM HST):
METAR PHNL 310153Z 05011G18KT 10SM FEW027 SCT038 SCT055 BKN150 32/23 A2984 RMK AO2 SLP103 T03170228
TAF - Terminal Area Forecast
PHNL - Honolulu, Hawaii
Updated at 1:53 AM GMT on August 31, 2015 (3:53 PM HST):
TAF PHNL 310035Z 3101/0106 04010G18KT P6SM VCSH SCT030 BKN050
     FM310600 04007KT P6SM VCSH SCT025 BKN040
     FM311200 VRB04KT P6SM FEW025 SCT040
     FM010000 04007KT P6SM VCSH SCT030 BKN050=
Decoded:
ID: PHNL   Honolulu Intl/O, HI
REPORT TIME: 31  0:35
VALID TIME: 31 August AT 01:00Z to 1 August AT 06:00Z.
INITIAL WX
   WINDS: 40 AT 10 GUST 18
   VISIBILITY: >6.0 MILES
   WEATHER: VCSH
   CLOUDS: 30 SCT
   CLOUDS: 50 BKN
NEW WX STARTING: 06:00Z
   WINDS: 40 AT 7
   VISIBILITY: >6.0 MILES
   WEATHER: VCSH
   CLOUDS: 25 SCT
   CLOUDS: 40 BKN
NEW WX STARTING: 12:00Z
   WIND: VARIABLE AT 4
   VISIBILITY: >6.0 MILES
   CLOUDS: 25 FEW
   CLOUDS: 40 SCT
NEW WX STARTING: 00:00Z
   WINDS: 40 AT 7
   VISIBILITY: >6.0 MILES
   WEATHER: VCSH
   CLOUDS: 30 SCT
   CLOUDS: 50 BKN
   COMMENTS: = 

CORRECTION
INITIAL WX
   WEATHER: SARE
   COMMENTS: 302300Z 3100/3124 05010KT CAVOK TX36/3119Z TN20/3110Z= 

CORRECTION
INITIAL WX
   WEATHER: SARF
   COMMENTS: 302300Z 3100/3124 05010KT CAVOK TX35/3119Z TN20/3110Z= 

CORRECTION
INITIAL WX
   WEATHER: SARI
   COMMENTS: 302300Z 3100/3124 02010KT CAVOK TX32/3119Z TN16/3110Z= 

CORRECTION
INITIAL WX
   WEATHER: SARP
   COMMENTS: 302300Z 3100/3124 05010KT CAVOK TX33/3119Z TN17/3110Z= 

CORRECTION
INITIAL WX
   WEATHER: SARE
   COMMENTS: 302300Z 3100/3124 05010KT CAVOK TX36/3119Z TN20/3110Z= 

CORRECTION
INITIAL WX
   WEATHER: SARF
   COMMENTS: 302300Z 3100/3124 05010KT CAVOK TX35/3119Z TN20/3110Z= 

CORRECTION
INITIAL WX
   WEATHER: SARI
   COMMENTS: 302300Z 3100/3124 02010KT CAVOK TX32/3119Z TN16/3110Z= 

CORRECTION
INITIAL WX
   WEATHER: SARP
   COMMENTS: 302300Z 3100/3124 05010KT CAVOK TX33/3119Z TN17/3110Z= 

CORRECTION
INITIAL WX
   WEATHER: SARE
   COMMENTS: 302300Z 3100/3124 05010KT CAVOK TX36/3119Z TN20/3110Z= 

CORRECTION
INITIAL WX
   WEATHER: SARF
   COMMENTS: 302300Z 3100/3124 05010KT CAVOK TX35/3119Z TN20/3110Z= 

CORRECTION
INITIAL WX
   WEATHER: SARI
   COMMENTS: 302300Z 3100/3124 02010KT CAVOK TX32/3119Z TN16/3110Z= 

CORRECTION
INITIAL WX
   WEATHER: SARP
   COMMENTS: 302300Z 3100/3124 05010KT CAVOK TX33/3119Z TN17/3110Z= 

CORRECTION
INITIAL WX
   WEATHER: SARE
   COMMENTS: 302300Z 3100/3124 05010KT CAVOK TX36/3119Z TN20/3110Z= 

CORRECTION
INITIAL WX
   WEATHER: SARF
   COMMENTS: 302300Z 3100/3124 05010KT CAVOK TX35/3119Z TN20/3110Z= 

CORRECTION
INITIAL WX
   WEATHER: SARI
   COMMENTS: 302300Z 3100/3124 02010KT CAVOK TX32/3119Z TN16/3110Z= 

CORRECTION
INITIAL WX
   WEATHER: SARP
   COMMENTS: 302300Z 3100/3124 05010KT CAVOK TX33/3119Z TN17/3110Z= 

CORRECTION
INITIAL WX
   WEATHER: SARE
   COMMENTS: 302300Z 3100/3124 05010KT CAVOK TX36/3119Z TN20/3110Z= 

CORRECTION
INITIAL WX
   WEATHER: SARF
   COMMENTS: 302300Z 3100/3124 05010KT CAVOK TX35/3119Z TN20/3110Z= 

CORRECTION
INITIAL WX
   WEATHER: SARI
   COMMENTS: 302300Z 3100/3124 02010KT CAVOK TX32/3119Z TN16/3110Z= 

CORRECTION
INITIAL WX
   WEATHER: SARP
   COMMENTS: 302300Z 3100/3124 05010KT CAVOK TX33/3119Z TN17/3110Z= 

CORRECTION
INITIAL WX
   WEATHER: SARE
   COMMENTS: 302300Z 3100/3124 05010KT CAVOK TX36/3119Z TN20/3110Z= 

CORRECTION
INITIAL WX
   WEATHER: SARF
   COMMENTS: 302300Z 3100/3124 05010KT CAVOK TX35/3119Z TN20/3110Z= 

CORRECTION
INITIAL WX
   WEATHER: SARI
   COMMENTS: 302300Z 3100/3124 02010KT CAVOK TX32/3119Z TN16/3110Z= 

CORRECTION
INITIAL WX
   WEATHER: SARP
   COMMENTS: 302300Z 3100/3124 05010KT CAVOK TX33/3119Z TN17/3110Z= 

PIREP - Pilot Weather Report
PHNL - Honolulu, Hawaii
Updated at 1:53 AM GMT on August 31, 2015 (3:53 PM HST):
No PIREP is currently available for this location.
AIRMET - Airmens Meteorological Information
PHNL - Honolulu, Hawaii
Updated at 1:53 AM GMT on August 31, 2015 (3:53 PM HST):
WA0HI 

HNLS WA 302200 
AIRMET SIERRA UPDATE 3 FOR IFR VALID UNTIL 310400
.
NO SIGNIFICANT IFR EXP. 

=HNLT WA 302200 
AIRMET TANGO UPDATE 3 FOR TURB VALID UNTIL 310400
.
NO SIGNIFICANT TURB EXP.

=HNLZ WA 310115 AMD
AIRMET ZULU UPDATE 4 FOR ICE AND FZLVL VALID UNTIL 310400
.
NO SIGNFICANT ICE EXP. 
.
FZLVL...160-161.
SIGMET - Significant Meteorological Information
PHNL - Honolulu, Hawaii
Updated at 1:53 AM GMT on August 31, 2015 (3:53 PM HST):
KZAK SIGMET TANGO 13 VALID 302115/310315 PHFO- OAKLAND OCEANIC FIR TC IGNACIO OBS AT 2100Z N1900 W14900. CB TOP FL520 WI 120NM OF CENTER. MOV NW 10KT. NC. FCST 0300Z TC CENTER N1940 W14940.
NOTAM - Notice to Airmen
PHNL - Honolulu, Hawaii
Updated at 1:53 AM GMT on August 31, 2015 (3:53 PM HST):
!HNL 08/190 HNL TWY S BTN RWY 8L/26R AND TWY Z CLSD 1508290324-1509060200
CREATED: 29 Aug 2015 03:24:00 SOURCE: HNL
!HNL 08/189 HNL TWY A BTN TWY D AND TWY Y CLSD 1508290323-1509060200
CREATED: 29 Aug 2015 03:23:00 SOURCE: HNL
!HNL 08/188 HNL TWY F BTN APCH END RWY 4L AND TWY D CLSD EXC TRANSIENT/B757 1508282358-1509050430
CREATED: 28 Aug 2015 23:58:00 SOURCE: HNL
!HNL 08/187 HNL TWY Z BTN 400FT EAST OF TWY S AND 200FT WEST OF TWY E CLSD 1508282342-1509021600
CREATED: 28 Aug 2015 23:44:00 SOURCE: PHNLYFYX
!HNL 08/175 HNL TWY Y BTN RWY 8L/26R AND TWY A CLSD 1508272226-1509040400
CREATED: 27 Aug 2015 22:26:00 SOURCE: HNL
!HNL 08/036 HNL TWY S BTN TWY A AND TWY Z IRREGULAR SFC 1508041837-1509010300
CREATED: 04 Aug 2015 18:46:00 SOURCE: PHNLYFYX
!HNL 08/003 HNL TWY L BTN TWY A AND INTER ISLAND TERMINAL RAMP CLSD 1508031500-1512141900
CREATED: 02 Aug 2015 17:16:00 SOURCE: HNL
!HNL 07/138 HNL TWY ALL WIP MAINT 1507312208-1509010959
CREATED: 31 Jul 2015 22:09:00 SOURCE: HNL
!HNL 07/085 HNL RWY 4L/22R NOW 6952FT X 150FT. DECLARED DISTANCES: RWY 4L TORA 6952FT TODA 6952FT ASDA 6952FT LDA 6952FT. RWY 22R TORA 6952FT TODA 6952FT ASDA 6952FT LDA 6802FT. 1507172318-1512312300
CREATED: 17 Jul 2015 23:18:00 SOURCE: PHNLYFYX
!HNL 07/044 HNL APRON TAXILANE 6 BTN TWY C AND SOUTH RAMP CLSD EXC GENERAL AVIATION/FIXED WING LOADING AND UNLOADING ONLY 1507072011-1509010800
CREATED: 07 Jul 2015 20:12:00 SOURCE: HNL
!HNL 07/020 HNL APRON TAXILANE 2 EAST 360FT CLSD 1507051523-1508312200
CREATED: 05 Jul 2015 15:23:00 SOURCE: PHNLYFYX
!HNL 06/221 HNL OBST CRANE (ASN UNKNOWN) 211952N1575546W (0.62NM N HNL) UNKNOWN (250FT AGL) LGTD FLAGGED 1506270049-1510230959
CREATED: 27 Jun 2015 00:49:00 SOURCE: PHNLYFYX
!HNL 04/003 HNL OBST CRANE (ASN UNKNOWN) 211913N1575634W (300FT E TWY RB) 73FT (60FT AGL) LGTD FLAGGED 1504020030-1512060030
CREATED: 01 Apr 2015 23:44:00 SOURCE: PHNLYFYX
!FDC 5/6729 HNL IAP HONOLULU INTL, HONOLULU, HI.
ILS RWY 8L, AMDT 22...RADAR REQUIRED FOR PROCEDURE ENTRY EXCEPT FOR AIRCRAFT EQUIPPEDWITH SUITABLE RNAV SYSTEM WITH GPS,LIH VORTAC OUT OF SERVICE. 1508211325-1509301325ESTCREATED: 21 Aug 2015 13:26:00 SOURCE: KDZZNAXX
!FDC 5/6728 HNL SID HONOLULU INTL, HONOLULU, HI.
KEOLA TWO DEPARTURE...LILIA TRANSITION NA EXCEPT FOR AIRCRAFT EQUIPPED WITH SUITABLE RNAVSYSTEM WITH GPS.SOUTH KAUAI TRANSITION DME REQUIRED EXCEPT FOR AIRCRAFT EQUIPPEDWITH SUITABLE RNAV SYSTEM WITH GPS,LIH VORTAC OUT OF SERVICE. 1508211325-1509301325ESTCREATED: 21 Aug 2015 13:26:00 SOURCE: KDZZNAXX
!FDC 5/6631 HNL IAP HONOLULU INTL, HONOLULU, HI.
ILS Y RWY 4R, AMDT 1A...ALTERNATE MISSED APPROACH: CLIMB TO 480, CAT E CLIMB TO 760 THENCLIMBING RIGHT TURN TO 3000 ON HEADING 170 AND CKH VORTAC R-218 TOALANA INT/CKH 17.44 DME AND HOLD..CHART IN PLANVIEW: ALTERNATE MA HOLDING, HOLD SW ALANA INT/CKH17.44 DME, RT, 038.45 INBOUND.THIS IS ILS Y RWY 4R, AMDT 1B. 1503231234-PERMCREATED: 23 Mar 2015 12:34:00 SOURCE: KDZZNAXX
!FDC 4/3255 HNL STAR HONOLULU INTL, HONOLULU, HI.
REEEF FOUR ARRIVAL (RNAV): NA 1407212200-PERMCREATED: 21 Jul 2014 22:21:00 SOURCE: KDZZNAXX
!FDC 4/3252 HNL STAR HONOLULU INTL, HONOLULU, HI.
FRTZI TWO ARRIVAL (RNAV): NA 1407212200-PERMCREATED: 21 Jul 2014 22:21:00 SOURCE: KDZZNAXX
!FDC 4/3251 HNL STAR HONOLULU INTL, HONOLULU, HI.
HAABR ONE ARRIVAL (RNAV): NA 1407212200-PERMCREATED: 21 Jul 2014 22:21:00 SOURCE: KDZZNAXX
Forecast Area
PHNL - Honolulu, Hawaii
Updated at 1:53 AM GMT on August 31, 2015 (3:53 PM HST):
FA0HI 

HNLC FA 310110
SYNOPSIS AND VFR CLD/WX
SYNOPSIS VALID UNTIL 311600
CLD/WX VALID UNTIL 311000...OUTLOOK VALID 311000-311600
.
SEE AIRMET SIERRA FOR IFR CLD AND MT OBSC.
TS IMPLY SEV OR GREATER TURB SEV ICE LOW LEVEL WS AND IFR COND.
NON MSL HGT DENOTED BY AGL OR CEILING.
.
SYNOPSIS...MULTIPLE BANDS OF SHOWERS WILL CONTINUE TO IMPACT NORTH 
THROUGH EAST FACING SHORELINES. LOCALIZED SEA BREEZES ARE 
ENCOURAGING THE DEVELOPMENT OF AFTERNOON AND EVENING SHOWERS OVER 
THE BIG ISLAND/S INTERIOR. 
.
BIG ISLAND SLOPES...COAST AND ADJ WATERS FROM UPOLU POINT TO CAPE 
KUMUKAHI TO APUA POINT.
FEW030 SCT-BKN050 TOPS 100 ISOL BKN030 OVC050 -SHRA. 08Z SCT020 
BKN-OVC040 TOPS 150 TEMPO BKN020 -SHRA ISOL TOPS FL200 VIS 3-5SM 
SHRA BR. OUTLOOK...MVFR CIG SHRA.   
.
REMAINDER BIG ISLAND AND ADJ WATERS.
FEW040 SCT-BKN070 BKN120 TOPS 150 ISOL BKN040 TOPS FL200 SHRA. 08Z 
FEW-SCT070 SCT120. OUTLOOK...VFR. 
.
MAUI MOLOKAI AND LANAI AND ADJ WATERS. 
FEW025 SCT-BKN040 BKN070 TOPS 100 ISOL BKN025 OVC040 TOPS 150 SHRA. 
OUTLOOK...VFR. 
.
OAHU AND KAUAI MTN...N THRU E SXNS...AND ADJ WATERS. 
SCT025 BKN-SCT040 TOPS 080 SEPD LYRS TO FL300 TEMPO -SHRA ISOL 
BKN025 TOPS 150
VIS 3-5SM SHRA BR. OUTLOOK...VFR. 
.
REMAINDER OAHU AND KAUAI AND ADJ WATERS. 
SCT050 SCT120 SEPD LYRS TO FL300 ISOL SCT030 BKN050 TOPS 100 -SHRA. 
OUTLOOK...VFR.
Aviation Weather Maps